createdAt,value
2023-06-12T00:02:11.079Z,16.80
2023-06-12T00:04:39.063Z,16.73
2023-06-12T00:07:07.706Z,16.65
2023-06-12T00:09:37.057Z,16.61
2023-06-12T00:12:05.776Z,16.56
2023-06-12T00:14:33.785Z,16.51
2023-06-12T00:17:01.827Z,16.46
2023-06-12T00:19:29.865Z,16.36
2023-06-12T00:21:57.963Z,16.31
2023-06-12T00:24:26.120Z,16.24
2023-06-12T00:26:55.466Z,16.18
2023-06-12T00:29:23.472Z,16.13
2023-06-12T00:31:51.689Z,16.06
2023-06-12T00:34:19.609Z,16.03
2023-06-12T00:36:48.591Z,15.97
2023-06-12T00:39:16.512Z,15.92
2023-06-12T00:41:44.440Z,15.91
2023-06-12T00:44:13.690Z,15.90
2023-06-12T00:46:41.891Z,15.86
2023-06-12T00:49:10.012Z,15.82
2023-06-12T00:51:38.002Z,15.77
2023-06-12T00:54:06.071Z,15.73
2023-06-12T00:56:34.171Z,15.68
2023-06-12T00:59:02.152Z,15.66
2023-06-12T01:01:31.599Z,15.61
2023-06-12T01:04:00.060Z,15.58
2023-06-12T01:06:35.606Z,15.55
2023-06-12T01:09:11.825Z,15.53
2023-06-12T01:11:41.344Z,15.51
2023-06-12T01:14:09.721Z,15.49
2023-06-12T01:16:42.097Z,15.46
2023-06-12T01:19:10.962Z,15.44
2023-06-12T01:21:41.420Z,15.44
2023-06-12T01:24:31.357Z,15.35
2023-06-12T01:27:16.646Z,15.35
2023-06-12T01:30:21.756Z,15.33
2023-06-12T01:32:52.385Z,15.21
2023-06-12T01:35:25.403Z,15.14
2023-06-12T01:37:57.482Z,15.10
2023-06-12T01:40:30.085Z,15.07
2023-06-12T01:42:58.311Z,15.05
2023-06-12T01:45:26.996Z,15.00
2023-06-12T01:47:56.698Z,14.92
2023-06-12T01:50:24.761Z,14.85
2023-06-12T01:52:52.652Z,14.84
2023-06-12T01:55:22.647Z,14.85
2023-06-12T01:57:51.251Z,14.82
2023-06-12T02:00:19.967Z,14.77
2023-06-12T02:02:48.437Z,14.71
2023-06-12T02:05:17.766Z,14.68
2023-06-12T02:07:45.687Z,14.63
2023-06-12T02:10:14.146Z,14.60
2023-06-12T02:12:44.707Z,14.53
2023-06-12T02:15:13.981Z,14.50
2023-06-12T02:17:42.683Z,14.47
2023-06-12T02:20:11.347Z,14.47
2023-06-12T02:22:40.877Z,14.47
2023-06-12T02:25:09.452Z,14.45
2023-06-12T02:27:37.437Z,14.45
2023-06-12T02:30:06.209Z,14.48
2023-06-12T02:32:36.722Z,14.47
2023-06-12T02:35:12.004Z,14.47
2023-06-12T02:37:41.374Z,14.47
2023-06-12T02:40:10.712Z,14.43
2023-06-12T02:42:38.929Z,14.41
2023-06-12T02:45:08.030Z,14.27
2023-06-12T02:47:36.162Z,14.35
2023-06-12T02:50:04.220Z,14.39
2023-06-12T02:52:32.529Z,14.40
2023-06-12T02:55:01.807Z,14.37
2023-06-12T02:57:29.825Z,14.38
2023-06-12T02:59:57.799Z,14.35
2023-06-12T03:02:25.876Z,14.30
2023-06-12T03:04:55.143Z,14.24
2023-06-12T03:07:23.142Z,14.20
2023-06-12T03:09:51.146Z,14.14
2023-06-12T03:12:20.507Z,14.12
2023-06-12T03:14:49.234Z,14.12
2023-06-12T03:17:17.262Z,14.10
2023-06-12T03:19:46.158Z,14.11
2023-06-12T03:22:14.136Z,14.10
2023-06-12T03:24:42.116Z,14.10
2023-06-12T03:27:10.916Z,14.12
2023-06-12T03:29:40.383Z,14.13
2023-06-12T03:32:09.727Z,14.10
2023-06-12T03:34:37.698Z,14.09
2023-06-12T03:37:06.154Z,14.04
2023-06-12T03:39:34.261Z,13.99
2023-06-12T03:42:02.351Z,13.98
2023-06-12T03:44:30.390Z,13.98
2023-06-12T03:47:00.020Z,13.97
2023-06-12T03:49:28.277Z,13.98
2023-06-12T03:51:56.744Z,14.00
2023-06-12T03:54:24.727Z,13.98
2023-06-12T03:56:52.711Z,13.94
2023-06-12T03:59:20.870Z,13.94
2023-06-12T04:01:49.878Z,13.97
2023-06-12T04:04:19.524Z,14.01
2023-06-12T04:06:48.123Z,14.07
2023-06-12T04:09:17.104Z,14.07
2023-06-12T04:11:45.165Z,14.05
2023-06-12T04:14:13.122Z,14.11
2023-06-12T04:16:41.219Z,14.18
2023-06-12T04:19:10.065Z,14.27
2023-06-12T04:21:39.423Z,14.38
2023-06-12T04:24:17.004Z,14.51
2023-06-12T04:26:47.603Z,14.63
2023-06-12T04:29:16.506Z,14.80
2023-06-12T04:31:45.173Z,14.98
2023-06-12T04:34:17.460Z,15.14
2023-06-12T04:36:47.037Z,15.29
2023-06-12T04:39:15.473Z,15.44
2023-06-12T04:41:43.697Z,15.62
2023-06-12T04:44:12.490Z,15.74
2023-06-12T04:46:40.844Z,15.91
2023-06-12T04:49:10.191Z,16.04
2023-06-12T04:51:39.884Z,16.22
2023-06-12T04:54:11.084Z,16.37
2023-06-12T04:56:41.645Z,16.49
2023-06-12T04:59:12.001Z,16.63
2023-06-12T05:01:40.612Z,16.81
2023-06-12T05:04:09.206Z,16.95
2023-06-12T05:06:40.518Z,17.13
2023-06-12T05:09:09.899Z,17.35
2023-06-12T05:11:37.942Z,17.65
2023-06-12T05:14:05.838Z,18.05
2023-06-12T05:16:33.956Z,18.38
2023-06-12T05:19:02.026Z,18.68
2023-06-12T05:21:30.009Z,19.11
2023-06-12T05:23:58.001Z,19.69
2023-06-12T05:26:28.413Z,20.42
2023-06-12T05:28:56.455Z,20.91
2023-06-12T05:31:24.652Z,21.33
2023-06-12T05:33:52.744Z,21.86
2023-06-12T05:36:21.124Z,22.38
2023-06-12T05:38:49.652Z,22.96
2023-06-12T05:41:18.104Z,23.74
2023-06-12T05:43:48.258Z,24.96
2023-06-12T05:46:16.690Z,26.07
2023-06-12T05:48:44.793Z,27.76
2023-06-12T05:51:12.896Z,29.57
2023-06-12T05:53:40.971Z,30.72
2023-06-12T05:56:10.948Z,31.69
2023-06-12T05:58:39.198Z,32.87
2023-06-12T06:01:10.494Z,33.85
2023-06-12T06:03:43.868Z,34.72
2023-06-12T06:06:14.259Z,35.15
2023-06-12T06:08:42.432Z,35.62
2023-06-12T06:11:10.868Z,36.37
2023-06-12T06:13:38.902Z,36.78
2023-06-12T06:16:10.670Z,37.12
2023-06-12T06:18:39.158Z,37.57
2023-06-12T06:21:07.352Z,38.51
2023-06-12T06:23:36.446Z,39.54
2023-06-12T06:26:04.775Z,40.33
2023-06-12T06:28:32.734Z,40.85
2023-06-12T06:31:01.601Z,40.29
2023-06-12T06:33:30.886Z,39.77
2023-06-12T06:35:58.960Z,40.16
2023-06-12T06:38:27.307Z,40.11
2023-06-12T06:40:55.579Z,39.40
2023-06-12T06:43:24.081Z,38.94
2023-06-12T06:45:52.298Z,38.83
2023-06-12T06:48:20.281Z,39.28
2023-06-12T06:50:49.763Z,39.14
2023-06-12T06:53:17.840Z,38.47
2023-06-12T06:55:46.137Z,38.72
2023-06-12T06:58:14.249Z,38.60
2023-06-12T07:00:42.222Z,38.38
2023-06-12T07:03:11.132Z,38.43
2023-06-12T07:05:39.375Z,38.43
2023-06-12T07:08:09.632Z,38.52
2023-06-12T07:10:38.317Z,38.92
2023-06-12T07:13:06.268Z,39.03
2023-06-12T07:15:34.754Z,38.31
2023-06-12T07:18:02.995Z,37.99
2023-06-12T07:20:31.040Z,37.66
2023-06-12T07:22:59.017Z,37.11
2023-06-12T07:25:28.844Z,36.92
2023-06-12T07:27:56.811Z,36.65
2023-06-12T07:30:24.976Z,35.71
2023-06-12T07:32:53.077Z,35.36
2023-06-12T07:35:21.340Z,35.49
2023-06-12T07:37:51.386Z,34.54
2023-06-12T07:40:19.533Z,34.66
2023-06-12T07:42:49.840Z,34.73
2023-06-12T07:45:17.859Z,33.91
2023-06-12T07:47:47.369Z,32.13
2023-06-12T07:50:15.471Z,30.05
2023-06-12T07:52:43.660Z,28.33
2023-06-12T07:55:12.128Z,27.01
2023-06-12T07:57:40.327Z,25.74
2023-06-12T08:00:11.317Z,24.95
2023-06-12T08:02:40.288Z,24.47
2023-06-12T08:05:09.413Z,24.11
2023-06-12T08:07:37.695Z,23.82
2023-06-12T08:10:08.763Z,23.70
2023-06-12T08:12:37.000Z,23.43
2023-06-12T08:15:05.670Z,23.18
2023-06-12T08:17:36.469Z,22.91
2023-06-12T08:20:06.684Z,22.71
2023-06-12T08:22:34.613Z,22.60
2023-06-12T08:25:02.692Z,22.56
2023-06-12T08:27:30.610Z,22.51
2023-06-12T08:29:58.622Z,22.45
2023-06-12T08:32:26.581Z,22.47
2023-06-12T08:34:57.108Z,22.31
2023-06-12T08:37:25.137Z,22.30
2023-06-12T08:39:53.194Z,22.32
2023-06-12T08:42:22.846Z,22.06
2023-06-12T08:44:57.155Z,22.01
2023-06-12T08:47:36.288Z,22.09
2023-06-12T08:50:07.259Z,22.20
2023-06-12T08:52:35.884Z,22.31
2023-06-12T08:55:05.151Z,22.48
2023-06-12T08:57:33.342Z,22.52
2023-06-12T09:00:01.298Z,22.54
2023-06-12T09:02:30.757Z,22.51
2023-06-12T09:05:03.924Z,22.47
2023-06-12T09:07:38.760Z,22.54
2023-06-12T09:10:14.439Z,22.63
2023-06-12T09:12:44.832Z,22.78
2023-06-12T09:15:18.865Z,22.83
2023-06-12T09:17:49.259Z,22.79
2023-06-12T09:20:28.840Z,22.81
2023-06-12T09:23:06.581Z,22.89
2023-06-12T09:25:38.974Z,22.90
2023-06-12T09:28:08.509Z,22.81
2023-06-12T09:30:40.930Z,22.62
2023-06-12T09:33:09.844Z,22.65
2023-06-12T09:35:51.588Z,22.72
2023-06-12T09:38:29.781Z,22.72
2023-06-12T09:40:59.110Z,22.78
2023-06-12T09:43:29.859Z,22.89
2023-06-12T09:45:58.813Z,22.85
2023-06-12T09:48:33.905Z,22.93
2023-06-12T09:51:07.136Z,22.90
2023-06-12T09:53:41.245Z,22.88
2023-06-12T09:56:10.974Z,22.76
2023-06-12T09:58:40.773Z,22.61
2023-06-12T10:01:09.834Z,22.54
2023-06-12T10:03:40.896Z,22.81
2023-06-12T10:06:10.684Z,23.11
2023-06-12T10:08:41.626Z,23.45
2023-06-12T10:11:10.574Z,23.89
2023-06-12T10:13:39.436Z,24.53
2023-06-12T10:16:08.984Z,25.28
2023-06-12T10:18:37.354Z,26.31
2023-06-12T10:21:08.777Z,27.05
2023-06-12T10:23:39.837Z,27.94
2023-06-12T10:26:08.463Z,28.52
2023-06-12T10:28:37.196Z,29.51
2023-06-12T10:31:15.392Z,30.64
2023-06-12T10:34:09.078Z,31.33
2023-06-12T10:36:43.114Z,31.39
2023-06-12T10:39:25.516Z,31.80
2023-06-12T10:41:55.833Z,32.83
2023-06-12T10:44:37.708Z,33.60
2023-06-12T10:47:07.060Z,34.77
2023-06-12T10:49:59.724Z,35.86
2023-06-12T10:52:28.498Z,34.73
2023-06-12T10:55:32.429Z,31.90
2023-06-12T10:58:01.835Z,30.70
2023-06-12T11:00:33.089Z,30.30
2023-06-12T11:03:02.740Z,29.27
2023-06-12T11:05:32.323Z,29.41
2023-06-12T11:08:02.105Z,30.54
2023-06-12T11:10:32.837Z,32.12
2023-06-12T11:13:01.612Z,33.52
2023-06-12T11:15:30.299Z,34.09
2023-06-12T11:17:58.304Z,33.06
2023-06-12T11:20:26.463Z,31.84
2023-06-12T11:23:02.089Z,32.35
2023-06-12T11:25:34.286Z,32.13
2023-06-12T11:28:03.928Z,30.54
2023-06-12T11:30:34.140Z,30.07
2023-06-12T11:33:08.739Z,30.42
2023-06-12T11:35:41.799Z,30.72
2023-06-12T11:40:43.428Z,32.20
2023-06-12T11:43:11.818Z,32.21
2023-06-12T11:45:43.139Z,31.02
2023-06-12T11:50:47.729Z,29.07
2023-06-12T11:53:17.161Z,28.76
2023-06-12T11:58:22.544Z,27.35
2023-06-12T12:00:53.099Z,26.26
2023-06-12T12:03:22.572Z,25.66
2023-06-12T12:05:52.810Z,24.95
2023-06-12T12:08:27.154Z,24.80
2023-06-12T12:10:56.813Z,24.67
2023-06-12T12:13:24.960Z,24.58
2023-06-12T12:15:53.016Z,24.48
2023-06-12T12:18:21.886Z,24.57
2023-06-12T12:20:51.005Z,24.68
2023-06-12T12:23:19.626Z,24.79
2023-06-12T12:25:50.090Z,24.47
2023-06-12T12:28:19.730Z,23.97
2023-06-12T12:30:47.819Z,23.59
2023-06-12T12:33:16.268Z,23.51
2023-06-12T12:35:44.530Z,23.38
2023-06-12T12:38:12.606Z,23.28
2023-06-12T12:40:40.733Z,23.01
2023-06-12T12:43:08.831Z,22.77
2023-06-12T12:45:38.275Z,22.71
2023-06-12T12:48:07.047Z,22.58
2023-06-12T12:50:41.703Z,22.49
2023-06-12T12:53:16.440Z,22.73
2023-06-12T12:55:44.709Z,23.12
2023-06-12T12:58:18.291Z,23.46
2023-06-12T13:00:50.758Z,23.79
2023-06-12T13:03:19.104Z,23.91
2023-06-12T13:05:47.496Z,23.91
2023-06-12T13:08:15.700Z,23.89
2023-06-12T13:10:44.453Z,23.94
2023-06-12T13:13:15.453Z,23.92
2023-06-12T13:15:44.101Z,23.94
2023-06-12T13:18:13.777Z,23.94
2023-06-12T13:20:41.814Z,23.94
2023-06-12T13:23:10.031Z,23.93
2023-06-12T13:25:39.800Z,24.00
2023-06-12T13:28:07.878Z,24.20
2023-06-12T13:30:36.018Z,24.37
2023-06-12T13:33:04.659Z,24.31
2023-06-12T13:35:36.052Z,24.17
2023-06-12T13:38:06.737Z,24.05
2023-06-12T13:40:34.836Z,23.83
2023-06-12T13:43:03.284Z,23.53
2023-06-12T13:45:33.214Z,23.18
2023-06-12T13:48:03.985Z,22.92
2023-06-12T13:50:33.688Z,22.83
2023-06-12T13:53:01.738Z,22.91
2023-06-12T13:55:29.726Z,23.09
2023-06-12T13:57:57.937Z,23.15
2023-06-12T14:00:27.897Z,23.18
2023-06-12T14:02:56.130Z,23.20
2023-06-12T14:05:24.261Z,23.15
2023-06-12T14:07:53.876Z,23.17
2023-06-12T14:10:22.528Z,23.24
2023-06-12T14:12:50.977Z,23.17
2023-06-12T14:15:20.990Z,22.97
2023-06-12T14:17:49.270Z,22.85
2023-06-12T14:20:17.912Z,22.83
2023-06-12T14:22:46.350Z,23.02
2023-06-12T14:25:16.136Z,23.03
2023-06-12T14:27:44.396Z,22.84
2023-06-12T14:30:15.001Z,22.57
2023-06-12T14:32:43.110Z,22.27
2023-06-12T14:35:11.438Z,22.04
2023-06-12T14:37:39.653Z,21.91
2023-06-12T14:40:09.416Z,21.88
2023-06-12T14:42:39.431Z,21.92
2023-06-12T14:45:09.367Z,22.01
2023-06-12T14:47:37.391Z,22.08
2023-06-12T14:50:06.325Z,22.15
2023-06-12T14:52:34.683Z,22.20
2023-06-12T14:55:03.538Z,22.18
2023-06-12T14:57:31.622Z,22.27
2023-06-12T15:00:00.911Z,22.18
2023-06-12T15:02:28.878Z,22.10
2023-06-12T15:04:57.095Z,22.04
2023-06-12T15:07:25.413Z,21.99
2023-06-12T15:09:53.406Z,21.92
2023-06-12T15:12:21.450Z,21.95
2023-06-12T15:14:49.644Z,21.88
2023-06-12T15:17:19.318Z,21.89
2023-06-12T15:19:47.751Z,21.88
2023-06-12T15:22:15.859Z,21.81
2023-06-12T15:24:43.961Z,21.68
2023-06-12T15:27:12.349Z,21.56
2023-06-12T15:29:40.720Z,21.48
2023-06-12T15:32:09.564Z,21.37
2023-06-12T15:34:38.953Z,21.29
2023-06-12T15:37:07.068Z,21.18
2023-06-12T15:39:34.995Z,21.17
2023-06-12T15:42:05.352Z,21.20
2023-06-12T15:44:34.150Z,21.35
2023-06-12T15:47:02.302Z,21.54
2023-06-12T15:49:30.586Z,21.68
2023-06-12T15:52:00.205Z,21.83
2023-06-12T15:54:28.741Z,21.88
2023-06-12T15:56:56.925Z,21.89
2023-06-12T15:59:25.174Z,21.81
2023-06-12T16:01:59.609Z,21.65
2023-06-12T16:04:28.498Z,21.49
2023-06-12T16:06:56.911Z,21.30
2023-06-12T16:09:26.601Z,21.13
2023-06-12T16:11:54.626Z,21.01
2023-06-12T16:14:22.655Z,20.94
2023-06-12T16:16:51.035Z,20.87
2023-06-12T16:19:19.291Z,20.80
2023-06-12T16:21:47.684Z,20.75
2023-06-12T16:24:15.873Z,20.75
2023-06-12T16:26:45.491Z,20.77
2023-06-12T16:29:13.564Z,20.80
2023-06-12T16:31:41.943Z,20.79
2023-06-12T16:34:10.072Z,20.70
2023-06-12T16:36:38.287Z,20.59
2023-06-12T16:39:06.545Z,20.47
2023-06-12T16:41:35.461Z,20.35
2023-06-12T16:44:04.985Z,20.24
2023-06-12T16:46:33.035Z,19.86
2023-06-12T16:49:01.197Z,19.38
2023-06-12T16:51:30.923Z,18.94
2023-06-12T16:54:00.147Z,18.67
2023-06-12T16:56:28.729Z,18.34
2023-06-12T16:58:57.185Z,18.04
2023-06-12T17:01:26.623Z,17.83
2023-06-12T17:03:54.979Z,17.61
2023-06-12T17:06:24.106Z,17.46
2023-06-12T17:08:52.238Z,17.31
2023-06-12T17:11:20.844Z,17.09
2023-06-12T17:13:48.908Z,16.92
2023-06-12T17:16:16.982Z,16.80
2023-06-12T17:18:47.832Z,16.68
2023-06-12T17:21:16.579Z,16.62
2023-06-12T17:23:44.685Z,16.62
2023-06-12T17:26:13.347Z,16.63
2023-06-12T17:28:41.409Z,16.65
2023-06-12T17:31:11.608Z,16.74
2023-06-12T17:33:41.056Z,16.73
2023-06-12T17:36:10.603Z,16.66
2023-06-12T17:38:38.553Z,16.55
2023-06-12T17:41:06.640Z,16.35
2023-06-12T17:43:34.698Z,16.20
2023-06-12T17:46:03.485Z,16.04
2023-06-12T17:48:31.982Z,15.98
2023-06-12T17:51:02.668Z,15.91
2023-06-12T17:53:32.199Z,15.82
2023-06-12T17:56:00.298Z,15.85
2023-06-12T17:58:28.278Z,15.82
2023-06-12T18:00:57.181Z,15.73
2023-06-12T18:03:25.229Z,15.65
2023-06-12T18:05:53.231Z,15.60
2023-06-12T18:08:21.280Z,15.52
2023-06-12T18:10:50.912Z,15.48
2023-06-12T18:13:19.365Z,15.45
2023-06-12T18:15:47.582Z,15.37
2023-06-12T18:18:18.131Z,15.32
2023-06-12T18:20:46.242Z,15.34
2023-06-12T18:23:14.274Z,15.32
2023-06-12T18:25:42.210Z,15.18
2023-06-12T18:28:11.760Z,15.10
2023-06-12T18:30:39.917Z,15.03
2023-06-12T18:33:07.857Z,14.95
2023-06-12T18:35:36.930Z,14.89
2023-06-12T18:38:05.526Z,14.82
2023-06-12T18:40:33.969Z,14.78
2023-06-12T18:43:02.132Z,14.75
2023-06-12T18:45:31.500Z,14.76
2023-06-12T18:47:59.646Z,14.76
2023-06-12T18:50:27.810Z,14.73
2023-06-12T18:52:56.094Z,14.70
2023-06-12T18:55:24.075Z,14.72
2023-06-12T18:57:52.129Z,14.72
2023-06-12T19:00:21.357Z,14.67
2023-06-12T19:02:54.070Z,14.58
2023-06-12T19:05:22.588Z,14.52
2023-06-12T19:07:50.865Z,14.45
2023-06-12T19:10:18.994Z,14.45
2023-06-12T19:12:46.955Z,14.43
2023-06-12T19:15:15.309Z,14.32
2023-06-12T19:17:43.661Z,14.38
2023-06-12T19:20:14.460Z,14.30
2023-06-12T19:22:46.419Z,14.25
2023-06-12T19:25:14.672Z,14.19
2023-06-12T19:27:42.890Z,14.18
2023-06-12T19:30:11.721Z,14.15
2023-06-12T19:32:44.611Z,14.13
2023-06-12T19:35:15.337Z,14.11
2023-06-12T19:37:44.326Z,14.13
2023-06-12T19:40:13.358Z,14.10
2023-06-12T19:42:41.424Z,14.04
2023-06-12T19:45:10.341Z,14.04
2023-06-12T19:47:38.538Z,14.10
2023-06-12T19:50:07.908Z,14.12
2023-06-12T19:52:39.255Z,14.14
2023-06-12T19:55:10.135Z,14.14
2023-06-12T19:57:38.384Z,14.13
2023-06-12T20:00:07.509Z,14.09
2023-06-12T20:02:35.755Z,14.17
2023-06-12T20:05:04.200Z,14.17
2023-06-12T20:07:32.207Z,14.09
2023-06-12T20:10:04.531Z,14.01
2023-06-12T20:12:33.445Z,13.98
2023-06-12T20:15:02.789Z,13.99
2023-06-12T20:17:31.207Z,13.98
2023-06-12T20:19:59.593Z,13.93
2023-06-12T20:22:27.830Z,13.91
2023-06-12T20:24:56.385Z,13.88
2023-06-12T20:27:25.932Z,13.87
2023-06-12T20:29:56.162Z,13.89
2023-06-12T20:32:24.274Z,13.83
2023-06-12T20:34:52.355Z,13.81
2023-06-12T20:37:20.758Z,13.76
2023-06-12T20:39:49.618Z,13.77
2023-06-12T20:42:17.577Z,13.78
2023-06-12T20:44:47.046Z,13.78
2023-06-12T20:47:15.201Z,13.77
2023-06-12T20:49:43.175Z,13.76
2023-06-12T20:52:11.561Z,13.72
2023-06-12T20:54:39.520Z,13.69
2023-06-12T20:57:09.308Z,13.60
2023-06-12T20:59:37.817Z,13.53
2023-06-12T21:02:07.752Z,13.48
2023-06-12T21:04:36.510Z,13.42
2023-06-12T21:07:04.938Z,13.43
2023-06-12T21:09:34.262Z,13.38
2023-06-12T21:12:03.118Z,13.37
2023-06-12T21:14:31.169Z,13.36
2023-06-12T21:17:00.044Z,13.34
2023-06-12T21:19:30.011Z,13.29
2023-06-12T21:21:58.105Z,13.22
2023-06-12T21:24:26.613Z,13.13
2023-06-12T21:26:55.879Z,13.18
2023-06-12T21:29:24.231Z,13.20
2023-06-12T21:31:54.956Z,13.23
2023-06-12T21:34:23.591Z,13.27
2023-06-12T21:36:53.718Z,13.26
2023-06-12T21:39:24.551Z,13.24
2023-06-12T21:41:52.815Z,13.16
2023-06-12T21:44:21.209Z,13.18
2023-06-12T21:46:49.288Z,13.13
2023-06-12T21:49:17.516Z,13.03
2023-06-12T21:51:46.111Z,13.04
2023-06-12T21:54:15.642Z,13.04
2023-06-12T21:56:44.295Z,12.96
2023-06-12T21:59:13.875Z,12.90
2023-06-12T22:01:42.065Z,12.87
2023-06-12T22:04:10.256Z,12.90
2023-06-12T22:06:39.753Z,12.91
2023-06-12T22:09:08.017Z,12.92
2023-06-12T22:11:37.624Z,12.91
2023-06-12T22:14:05.841Z,12.99
2023-06-12T22:16:34.098Z,12.99
2023-06-12T22:19:03.261Z,13.07
2023-06-12T22:21:32.383Z,13.04
2023-06-12T22:24:00.576Z,12.99
2023-06-12T22:26:29.746Z,12.89
2023-06-12T22:28:59.392Z,12.89
2023-06-12T22:31:27.680Z,12.91
2023-06-12T22:33:55.909Z,12.89
2023-06-12T22:36:24.122Z,12.89
2023-06-12T22:38:52.342Z,12.85
2023-06-12T22:41:20.525Z,12.84
2023-06-12T22:43:48.835Z,12.85
2023-06-12T22:46:18.589Z,12.89
2023-06-12T22:48:46.830Z,12.85
2023-06-12T22:51:15.097Z,12.74
2023-06-12T22:53:43.197Z,12.65
2023-06-12T22:56:11.486Z,12.44
2023-06-12T22:58:39.768Z,12.35
2023-06-12T23:01:07.942Z,12.36
2023-06-12T23:03:37.505Z,12.35
2023-06-12T23:06:06.563Z,12.28
2023-06-12T23:08:34.766Z,12.13
2023-06-12T23:11:02.854Z,11.96
2023-06-12T23:13:30.982Z,11.95
2023-06-12T23:15:59.235Z,11.96
2023-06-12T23:18:31.490Z,11.96
2023-06-12T23:21:03.134Z,11.96
2023-06-12T23:23:33.817Z,11.88
2023-06-12T23:26:03.761Z,11.79
2023-06-12T23:28:34.459Z,11.70
2023-06-12T23:31:03.841Z,11.66
2023-06-12T23:33:32.479Z,11.59
2023-06-12T23:36:02.261Z,11.56
2023-06-12T23:38:30.382Z,11.47
2023-06-12T23:40:58.519Z,11.43
2023-06-12T23:43:27.808Z,11.40
2023-06-12T23:45:55.946Z,11.37
2023-06-12T23:48:24.066Z,11.33
2023-06-12T23:50:52.358Z,11.35
2023-06-12T23:53:22.975Z,11.41
2023-06-12T23:55:51.234Z,11.48
2023-06-12T23:58:19.339Z,11.51
